Time;durP1;ratioP1;P1;durP2;ratioP2;P2;SDS_P1;SDS_P2;PMS_P1;PMS_P2;Temp;Humidity;BMP_temperature;BMP_pressure;BME280_temperature;BME280_humidity;BME280_pressure;Samples;Min_cycle;Max_cycle;Signal;HPM_P1;HPM_P2
2023/05/02 00:00:47;;;;;;;36.05;14.57;;;;;;;9.78;100.00;101757.47;10399548;28;20064;-74
2023/05/02 00:05:47;;;;;;;27.10;12.40;;;;;;;9.82;100.00;101780.69;10381925;28;20044;-73
2023/05/02 00:10:48;;;;;;;25.35;12.43;;;;;;;9.71;100.00;101768.50;10399580;28;20052;-74
2023/05/02 00:15:48;;;;;;;16.98;8.02;;;;;;;9.63;100.00;101799.03;10383020;28;20046;-74
2023/05/02 00:20:49;;;;;;;19.00;8.18;;;;;;;9.57;100.00;101800.81;10367330;28;20045;-74
2023/05/02 00:26:09;;;;;;;10.73;6.55;;;;;;;9.35;100.00;101803.09;10387332;28;20042;-75
2023/05/02 00:31:09;;;;;;;14.93;8.13;;;;;;;9.28;100.00;101810.53;10364743;28;20033;-75
2023/05/02 00:36:17;;;;;;;17.98;7.88;;;;;;;9.17;100.00;101812.09;10396768;28;20172;-74
2023/05/02 00:41:17;;;;;;;24.45;7.75;;;;;;;9.17;100.00;101822.25;10380816;28;20034;-75
2023/05/02 00:46:18;;;;;;;19.40;7.80;;;;;;;9.08;100.00;101825.25;10397845;28;20037;-74
2023/05/02 00:51:18;;;;;;;19.02;7.80;;;;;;;9.01;100.00;101834.59;10381882;28;20037;-74
2023/05/02 00:56:19;;;;;;;16.85;7.07;;;;;;;8.98;100.00;101840.53;10380166;28;20029;-75
2023/05/02 01:01:19;;;;;;;17.38;8.35;;;;;;;9.01;100.00;101832.72;10364128;28;20061;-74
2023/05/02 01:06:41;;;;;;;17.75;8.23;;;;;;;9.04;100.00;101835.00;10395268;28;20072;-74
2023/05/02 01:12:03;;;;;;;17.83;8.50;;;;;;;8.94;100.00;101818.16;10361759;28;20528;-73
2023/05/02 01:17:06;;;;;;;19.20;9.65;;;;;;;8.92;100.00;101825.78;10366115;28;20043;-73
2023/05/02 01:22:08;;;;;;;18.45;8.63;;;;;;;8.87;100.00;101818.19;10363469;28;20044;-73
2023/05/02 01:27:17;;;;;;;17.45;8.43;;;;;;;8.93;100.00;101843.94;10363413;28;20041;-73
2023/05/02 01:32:19;;;;;;;19.65;7.97;;;;;;;8.84;100.00;101826.03;10379268;28;20029;-72
2023/05/02 01:37:21;;;;;;;28.27;8.40;;;;;;;8.93;100.00;101854.94;10378384;28;20354;-72
2023/05/02 01:42:21;;;;;;;16.65;7.07;;;;;;;8.92;100.00;101864.22;10348118;28;20045;-72
2023/05/02 01:47:22;;;;;;;13.00;6.18;;;;;;;8.91;100.00;101869.94;10396490;28;20153;-73
2023/05/02 01:52:22;;;;;;;22.55;6.97;;;;;;;8.83;100.00;101851.81;10363277;28;20598;-72
2023/05/02 01:57:23;;;;;;;16.58;5.78;;;;;;;8.89;100.00;101882.00;10395310;28;20061;-73
2023/05/02 02:02:25;;;;;;;23.48;5.95;;;;;;;8.69;100.00;101879.31;10360269;28;20077;-74
2023/05/02 02:07:26;;;;;;;20.77;4.80;;;;;;;8.50;100.00;101904.94;10360402;28;20038;-72
2023/05/02 02:12:40;;;;;;;20.38;4.97;;;;;;;8.31;100.00;101909.41;10346488;28;20042;-73
2023/05/02 02:18:00;;;;;;;10.75;3.70;;;;;;;8.24;100.00;101927.75;10378078;28;20045;-73
2023/05/02 02:23:03;;;;;;;17.48;4.43;;;;;;;7.93;100.00;101903.72;10362628;28;20037;-72
2023/05/02 02:28:05;;;;;;;17.73;4.82;;;;;;;7.98;100.00;101931.34;10346217;28;20041;-73
2023/05/02 02:33:06;;;;;;;20.92;5.03;;;;;;;7.88;100.00;101940.84;10377090;28;20040;-73
2023/05/02 02:38:22;;;;;;;25.50;5.05;;;;;;;7.74;100.00;101949.28;10376899;28;20037;-73
2023/05/02 02:43:53;;;;;;;22.33;5.57;;;;;;;7.81;100.00;101967.44;10377571;28;20068;-74
2023/05/02 02:49:22;;;;;;;17.35;5.72;;;;;;;7.77;100.00;101977.13;10377043;28;20049;-74
2023/05/02 02:54:35;;;;;;;24.52;5.60;;;;;;;7.65;100.00;101976.06;10376563;28;20042;-74
2023/05/02 02:59:40;;;;;;;15.73;5.35;;;;;;;7.53;100.00;101980.44;10361154;28;20052;-74
2023/05/02 03:04:41;;;;;;;14.35;3.50;;;;;;;7.49;100.00;101985.50;10376453;28;20108;-74
2023/05/02 03:09:42;;;;;;;14.85;3.83;;;;;;;7.56;100.00;101996.47;10359862;28;20033;-73
2023/05/02 03:14:43;;;;;;;16.02;3.72;;;;;;;7.50;100.00;101997.28;10361061;28;20387;-72
2023/05/02 03:19:43;;;;;;;17.05;5.07;;;;;;;7.45;100.00;102012.44;10376452;28;20038;-73
2023/05/02 03:24:44;;;;;;;20.05;4.18;;;;;;;7.52;100.00;102019.84;10360573;28;20038;-73
2023/05/02 03:29:44;;;;;;;19.20;4.05;;;;;;;7.52;100.00;102031.66;10376638;28;20048;-74
2023/05/02 03:34:44;;;;;;;17.05;3.92;;;;;;;7.37;100.00;102030.97;10415011;28;20128;-73
2023/05/02 03:39:45;;;;;;;19.23;4.40;;;;;;;7.28;100.00;102038.53;10367431;28;20037;-73
2023/05/02 03:44:45;;;;;;;11.75;3.30;;;;;;;7.28;100.00;102058.53;10400858;28;20052;-74
2023/05/02 03:49:46;;;;;;;15.90;4.13;;;;;;;7.22;100.00;102064.00;10418212;28;20037;-73
2023/05/02 03:54:46;;;;;;;16.05;3.42;;;;;;;7.10;100.00;102062.88;10400731;28;20403;-73
2023/05/02 03:59:47;;;;;;;15.50;3.45;;;;;;;7.16;100.00;102073.00;10400405;28;20041;-72
2023/05/02 04:04:48;;;;;;;9.50;2.08;;;;;;;7.06;100.00;102073.38;10379657;28;20030;-73
2023/05/02 04:09:48;;;;;;;11.63;2.95;;;;;;;6.99;100.00;102070.59;10365208;28;20431;-72
2023/05/02 04:14:49;;;;;;;23.85;3.28;;;;;;;6.97;100.00;102078.16;10367343;28;20048;-72
2023/05/02 04:19:50;;;;;;;16.65;2.42;;;;;;;6.93;100.00;102101.53;10383089;28;20041;-73
2023/05/02 04:24:51;;;;;;;16.38;3.28;;;;;;;6.86;100.00;102089.66;10366416;28;20110;-72
2023/05/02 04:29:52;;;;;;;12.23;2.88;;;;;;;6.82;100.00;102083.75;10383119;28;20061;-73
2023/05/02 04:34:52;;;;;;;5.72;1.95;;;;;;;7.02;100.00;102137.81;10399350;28;20397;-73
2023/05/02 04:39:53;;;;;;;9.65;2.00;;;;;;;6.98;100.00;102126.38;10395780;28;20041;-73
2023/05/02 04:44:53;;;;;;;7.00;1.83;;;;;;;6.93;100.00;102123.44;10349241;28;20038;-73
2023/05/02 04:49:54;;;;;;;7.80;1.80;;;;;;;7.06;100.00;102142.66;10364766;28;20068;-73
2023/05/02 04:54:55;;;;;;;9.32;2.22;;;;;;;6.67;100.00;102078.38;10416479;28;20038;-72
2023/05/02 04:59:56;;;;;;;6.43;1.90;;;;;;;7.04;100.00;102147.50;10398316;28;20068;-72
2023/05/02 05:04:56;;;;;;;11.00;1.42;;;;;;;6.99;100.00;102155.47;10322241;28;20052;-73
2023/05/02 05:09:57;;;;;;;9.93;2.03;;;;;;;6.91;100.00;102158.38;10355621;28;20053;-72
2023/05/02 05:14:57;;;;;;;6.13;1.70;;;;;;;6.95;100.00;102167.88;10356831;28;20053;-72
2023/05/02 05:19:58;;;;;;;7.43;2.03;;;;;;;6.91;100.00;102202.16;10339748;28;20030;-72
2023/05/02 05:24:58;;;;;;;8.60;1.63;;;;;;;6.91;100.00;102191.22;10356191;28;20482;-73
2023/05/02 05:29:59;;;;;;;8.98;2.00;;;;;;;6.74;100.00;102181.56;10338171;28;20057;-72
2023/05/02 05:35:00;;;;;;;9.55;3.85;;;;;;;6.84;100.00;102196.66;10354772;28;20045;-72
2023/05/02 05:40:00;;;;;;;12.57;2.25;;;;;;;6.80;100.00;102195.34;10361994;28;20432;-72
2023/05/02 05:45:01;;;;;;;10.57;3.28;;;;;;;6.83;100.00;102207.78;10412928;28;20034;-72
2023/05/02 05:50:02;;;;;;;16.00;3.35;;;;;;;6.73;100.00;102188.09;10412652;28;20033;-72
2023/05/02 05:55:03;;;;;;;10.95;2.30;;;;;;;6.84;100.00;102212.19;10362918;28;20048;-72
2023/05/02 06:00:04;;;;;;;10.40;2.60;;;;;;;6.89;100.00;102220.69;10412758;28;20405;-70
2023/05/02 06:05:04;;;;;;;12.95;2.70;;;;;;;7.02;100.00;102217.22;10342640;28;20054;-72
2023/05/02 06:10:05;;;;;;;9.65;2.15;;;;;;;7.00;100.00;102217.41;10371238;28;20038;-72
2023/05/02 06:15:06;;;;;;;10.65;2.85;;;;;;;7.29;100.00;102242.91;10347815;28;20033;-72
2023/05/02 06:20:08;;;;;;;16.50;3.08;;;;;;;7.39;100.00;102221.50;10413222;28;20041;-72
2023/05/02 06:25:08;;;;;;;11.75;3.58;;;;;;;7.56;100.00;102235.72;10395739;28;20037;-72
2023/05/02 06:30:09;;;;;;;8.07;1.98;;;;;;;7.65;100.00;102244.66;10351910;28;20858;-71
2023/05/02 06:35:11;;;;;;;10.13;2.25;;;;;;;7.57;100.00;102250.31;10408318;28;20093;-72
2023/05/02 06:40:12;;;;;;;10.98;2.13;;;;;;;7.81;100.00;102247.06;10409533;28;20037;-71
2023/05/02 06:45:13;;;;;;;15.90;3.90;;;;;;;8.04;100.00;102256.88;10410889;28;20047;-72
2023/05/02 06:50:13;;;;;;;7.65;2.30;;;;;;;8.28;100.00;102275.56;10377294;28;20097;-71
2023/05/02 06:55:14;;;;;;;13.07;2.10;;;;;;;8.35;100.00;102269.25;10394013;28;20061;-71
2023/05/02 07:00:18;;;;;;;6.28;2.35;;;;;;;8.38;100.00;102288.06;10360640;28;20041;-71
2023/05/02 07:05:18;;;;;;;13.55;2.38;;;;;;;8.29;100.00;102282.75;10374439;28;20068;-73
2023/05/02 07:10:18;;;;;;;12.73;2.60;;;;;;;8.15;100.00;102302.94;10393925;28;20044;-72
2023/05/02 07:15:19;;;;;;;7.38;2.33;;;;;;;8.26;100.00;102307.84;10391262;28;20052;-72
2023/05/02 07:20:22;;;;;;;15.93;2.50;;;;;;;8.51;100.00;102329.31;10383458;28;20029;-71
2023/05/02 07:25:23;;;;;;;9.63;1.95;;;;;;;8.33;100.00;102298.78;10359858;28;20041;-71
2023/05/02 07:30:23;;;;;;;7.93;1.83;;;;;;;8.52;100.00;102314.53;10364358;28;20115;-71
2023/05/02 07:35:24;;;;;;;7.80;2.13;;;;;;;8.48;100.00;102313.25;10407550;28;20034;-71
2023/05/02 07:40:24;;;;;;;8.30;1.90;;;;;;;8.78;100.00;102321.16;10388498;28;20075;-72
2023/05/02 07:45:25;;;;;;;6.68;2.40;;;;;;;8.95;100.00;102319.75;10392604;28;20037;-71
2023/05/02 07:50:26;;;;;;;8.40;1.92;;;;;;;9.18;100.00;102318.50;10393540;28;20030;-71
2023/05/02 07:55:26;;;;;;;10.75;2.70;;;;;;;9.16;100.00;102315.97;10393461;28;20093;-72
2023/05/02 08:00:27;;;;;;;9.35;2.13;;;;;;;9.11;100.00;102323.13;10392275;28;20540;-72
2023/05/02 08:05:28;;;;;;;11.35;2.03;;;;;;;9.20;100.00;102332.84;10390920;28;20045;-72
2023/05/02 08:10:28;;;;;;;10.65;2.10;;;;;;;9.06;100.00;102327.34;10368279;28;20056;-71
2023/05/02 08:15:29;;;;;;;11.20;2.30;;;;;;;9.69;100.00;102364.59;10409273;28;20049;-73
2023/05/02 08:20:30;;;;;;;12.07;2.50;;;;;;;9.88;100.00;102358.25;10398574;28;20505;-72
2023/05/02 08:25:30;;;;;;;9.23;2.25;;;;;;;9.99;100.00;102364.19;10417867;28;20053;-73
2023/05/02 08:30:30;;;;;;;8.90;1.80;;;;;;;9.96;100.00;102364.59;10383167;28;20061;-73
2023/05/02 08:35:31;;;;;;;8.57;2.05;;;;;;;10.33;100.00;102375.97;10382004;28;20036;-73
2023/05/02 08:40:36;;;;;;;10.70;1.67;;;;;;;10.29;100.00;102384.69;10396199;28;20048;-73
2023/05/02 08:45:41;;;;;;;3.22;1.05;;;;;;;10.29;100.00;102381.94;10365047;28;20053;-73
2023/05/02 08:50:45;;;;;;;6.28;1.70;;;;;;;10.32;100.00;102363.28;10399637;28;20060;-73
2023/05/02 08:55:45;;;;;;;4.22;1.00;;;;;;;10.59;99.92;102375.06;10399655;28;20080;-74
2023/05/02 09:00:46;;;;;;;7.78;1.23;;;;;;;10.70;100.00;102399.16;10381590;28;20107;-73
2023/05/02 09:05:51;;;;;;;7.13;1.67;;;;;;;10.95;95.76;102393.75;10414171;28;20033;-74
2023/05/02 09:10:51;;;;;;;4.00;0.88;;;;;;;11.31;95.27;102400.56;10380727;28;20041;-73
2023/05/02 09:16:00;;;;;;;4.95;1.60;;;;;;;11.02;93.55;102407.50;10395978;28;20061;-73
2023/05/02 09:21:02;;;;;;;5.53;1.02;;;;;;;10.58;92.59;102414.66;10398134;28;20034;-72
2023/05/02 09:26:17;;;;;;;4.40;1.10;;;;;;;10.55;93.04;102415.09;10348702;28;20087;-72
2023/05/02 09:31:21;;;;;;;5.53;0.80;;;;;;;10.80;93.29;102415.22;10379581;28;20053;-73
2023/05/02 09:36:22;;;;;;;3.60;0.80;;;;;;;10.78;90.88;102420.09;10364487;28;20029;-77
2023/05/02 09:41:23;;;;;;;5.00;1.20;;;;;;;10.40;93.25;102383.16;10363992;28;20480;-73
2023/05/02 09:46:24;;;;;;;5.50;1.27;;;;;;;10.78;93.03;102434.72;10356012;28;20296;-75
2023/05/02 09:51:24;;;;;;;3.50;0.75;;;;;;;10.68;91.71;102418.66;10377189;28;20041;-73
2023/05/02 09:56:25;;;;;;;7.57;1.30;;;;;;;10.87;89.97;102421.53;10357864;28;20053;-72
2023/05/02 10:01:25;;;;;;;5.80;1.30;;;;;;;11.07;90.72;102430.56;10379444;28;20056;-72
2023/05/02 10:06:27;;;;;;;2.55;1.05;;;;;;;10.84;89.71;102444.03;10377946;28;20117;-73
2023/05/02 10:11:27;;;;;;;4.40;1.08;;;;;;;10.77;92.55;102470.75;10382318;28;20567;-74
2023/05/02 10:16:28;;;;;;;4.60;0.88;;;;;;;10.57;93.37;102471.66;10363311;28;20061;-72
2023/05/02 10:21:28;;;;;;;1.65;0.70;;;;;;;10.49;94.42;102458.97;10353703;28;20113;-73
2023/05/02 10:26:29;;;;;;;7.85;1.10;;;;;;;10.85;95.85;102478.78;10353031;28;20096;-72
2023/05/02 10:31:32;;;;;;;8.88;2.35;;;;;;;10.77;100.00;102487.28;10337909;28;20034;-73
2023/05/02 10:36:33;;;;;;;2.45;1.00;;;;;;;10.24;99.84;102450.50;10321401;28;20072;-73
2023/05/02 10:41:33;;;;;;;4.70;0.82;;;;;;;10.42;100.00;102510.44;10353397;28;20084;-72
2023/05/02 10:46:40;;;;;;;2.55;1.00;;;;;;;10.86;99.09;102502.53;10337422;28;20038;-72
2023/05/02 10:51:41;;;;;;;7.63;1.48;;;;;;;11.45;96.82;102495.91;10339715;28;20130;-73
2023/05/02 10:57:04;;;;;;;3.80;0.93;;;;;;;11.39;95.27;102491.28;10393101;28;20025;-73
2023/05/02 11:02:29;;;;;;;2.70;0.70;;;;;;;10.82;97.79;102523.31;10394758;28;20072;-72
2023/05/02 11:07:30;;;;;;;2.75;0.73;;;;;;;10.25;95.36;102512.75;10403407;28;20209;-74
2023/05/02 11:12:47;;;;;;;2.13;0.73;;;;;;;10.40;92.59;102503.47;10377515;28;20116;-72
2023/05/02 11:18:01;;;;;;;3.63;0.57;;;;;;;10.41;92.09;102502.41;10360081;28;20052;-72
2023/05/02 11:23:20;;;;;;;3.60;0.77;;;;;;;11.22;91.33;102498.34;10360424;28;20045;-73
2023/05/02 11:28:36;;;;;;;4.07;0.88;;;;;;;12.02;89.27;102489.63;10392637;28;20062;-73
2023/05/02 11:33:36;;;;;;;3.65;0.95;;;;;;;12.67;88.22;102487.31;10394416;28;20085;-73
2023/05/02 11:38:37;;;;;;;4.88;1.02;;;;;;;11.95;86.79;102483.28;10391272;28;20037;-73
2023/05/02 11:43:37;;;;;;;5.15;0.80;;;;;;;11.14;86.64;102504.13;10359623;28;20155;-73
2023/05/02 11:48:38;;;;;;;4.43;0.65;;;;;;;11.63;87.92;102508.13;10376025;28;20053;-73
2023/05/02 11:53:39;;;;;;;2.22;0.70;;;;;;;12.20;89.53;102511.78;10396102;28;20025;-73
2023/05/02 11:58:40;;;;;;;3.85;0.50;;;;;;;12.15;88.79;102513.50;10401132;28;20560;-73
2023/05/02 12:03:40;;;;;;;4.00;0.77;;;;;;;11.84;89.67;102538.09;10365666;28;20033;-73
2023/05/02 12:08:42;;;;;;;1.88;0.80;;;;;;;11.93;90.24;102546.16;10399883;28;20368;-73
2023/05/02 12:13:46;;;;;;;4.32;0.82;;;;;;;11.59;91.76;102556.53;10383711;28;20603;-73
2023/05/02 12:18:47;;;;;;;5.55;0.82;;;;;;;11.16;99.66;102592.94;10359181;28;20552;-74
2023/05/02 12:23:47;;;;;;;3.22;0.80;;;;;;;11.18;100.00;102588.06;10394544;28;20049;-74
2023/05/02 12:28:51;;;;;;;3.05;0.80;;;;;;;11.44;99.27;102565.91;10382859;28;20041;-74
2023/05/02 12:33:56;;;;;;;3.80;1.20;;;;;;;13.12;91.71;102558.03;10350247;28;20095;-73
2023/05/02 12:38:58;;;;;;;6.10;0.98;;;;;;;14.52;81.52;102520.03;10366120;28;20049;-73
2023/05/02 12:43:59;;;;;;;5.40;0.77;;;;;;;13.55;88.46;102554.34;10382165;28;20037;-73
2023/05/02 12:49:04;;;;;;;4.47;0.88;;;;;;;12.84;89.58;102581.53;10365599;28;20040;-73
2023/05/02 12:54:05;;;;;;;4.40;0.82;;;;;;;12.45;90.71;102574.44;10365361;28;20507;-72
2023/05/02 12:59:06;;;;;;;4.47;0.93;;;;;;;12.42;88.21;102574.88;10366456;28;20109;-72
2023/05/02 13:04:07;;;;;;;2.40;0.60;;;;;;;12.15;87.28;102569.56;10359804;28;20056;-72
2023/05/02 13:09:07;;;;;;;3.38;0.68;;;;;;;11.84;83.32;102562.09;10380705;28;20088;-73
2023/05/02 13:14:10;;;;;;;2.65;0.43;;;;;;;11.60;84.79;102578.38;10365191;28;20120;-72
2023/05/02 13:19:10;;;;;;;0.75;0.35;;;;;;;11.53;84.36;102585.81;10364604;28;20041;-72
2023/05/02 13:24:12;;;;;;;3.00;0.70;;;;;;;12.23;84.36;102585.88;10396756;28;20040;-73
2023/05/02 13:29:12;;;;;;;4.80;0.57;;;;;;;12.09;85.25;102614.63;10352841;28;20045;-71
2023/05/02 13:34:12;;;;;;;3.78;0.70;;;;;;;11.51;91.31;102627.44;10396676;28;20045;-72
2023/05/02 13:39:13;;;;;;;3.88;0.73;;;;;;;11.09;93.51;102628.81;10391984;28;20038;-71
2023/05/02 13:44:13;;;;;;;5.63;0.77;;;;;;;11.29;96.31;102646.16;10379213;28;20069;-71
2023/05/02 13:49:14;;;;;;;2.50;0.70;;;;;;;11.81;93.31;102637.06;10369163;28;20080;-72
2023/05/02 13:54:14;;;;;;;3.97;0.60;;;;;;;10.84;92.20;102581.78;10363377;28;20046;-72
2023/05/02 13:59:15;;;;;;;2.03;0.65;;;;;;;11.14;94.01;102630.91;10392471;28;20033;-73
2023/05/02 14:04:15;;;;;;;6.50;0.73;;;;;;;11.38;92.44;102637.66;10403795;28;20029;-73
2023/05/02 14:09:16;;;;;;;4.38;0.68;;;;;;;11.42;92.83;102634.25;10395897;28;20043;-72
2023/05/02 14:14:17;;;;;;;6.10;0.70;;;;;;;11.60;97.51;102632.72;10412283;28;20042;-72
2023/05/02 14:19:17;;;;;;;5.90;0.90;;;;;;;11.17;94.97;102653.38;10376804;28;20105;-72
2023/05/02 14:24:18;;;;;;;4.40;0.70;;;;;;;10.67;100.00;102664.88;10394803;28;20363;-70
2023/05/02 14:29:19;;;;;;;4.53;0.90;;;;;;;11.02;100.00;102683.09;10396349;28;20119;-72
2023/05/02 14:34:20;;;;;;;6.32;0.95;;;;;;;11.29;100.00;102664.63;10411996;28;20037;-71
2023/05/02 14:39:21;;;;;;;4.28;1.00;;;;;;;11.82;100.00;102656.16;10378691;28;20037;-71
2023/05/02 14:44:21;;;;;;;5.18;1.00;;;;;;;11.79;100.00;102651.06;10380362;28;20042;-71
2023/05/02 14:49:24;;;;;;;4.88;0.80;;;;;;;11.27;96.75;102598.66;10370684;28;20034;-71
2023/05/02 14:54:29;;;;;;;5.47;0.70;;;;;;;11.56;96.51;102656.28;10343550;28;20525;-75
2023/05/02 14:59:29;;;;;;;4.05;0.52;;;;;;;11.39;97.56;102659.50;10353765;28;20042;-73
2023/05/02 15:04:30;;;;;;;4.93;0.90;;;;;;;11.71;96.58;102663.19;10371134;28;20037;-73
2023/05/02 15:09:30;;;;;;;4.55;0.70;;;;;;;11.94;93.49;102645.31;10343094;28;20120;-73
2023/05/02 15:14:31;;;;;;;5.60;0.50;;;;;;;11.43;93.84;102658.00;10391029;28;20041;-73
2023/05/02 15:19:31;;;;;;;5.15;1.05;;;;;;;10.74;95.09;102658.53;10376842;28;20037;-76
2023/05/02 15:24:32;;;;;;;2.35;0.70;;;;;;;10.56;97.00;102667.41;10393866;28;20375;-74
2023/05/02 15:29:32;;;;;;;2.85;0.90;;;;;;;10.52;98.06;102660.63;10366258;28;20033;-73
2023/05/02 15:34:33;;;;;;;4.22;1.42;;;;;;;10.81;97.44;102693.28;10385544;28;20034;-72
2023/05/02 15:39:33;;;;;;;4.53;0.60;;;;;;;11.15;97.61;102683.09;10418200;28;20049;-74
2023/05/02 15:44:35;;;;;;;5.22;1.17;;;;;;;11.19;96.28;102678.00;10360354;28;20049;-74
2023/05/02 15:49:39;;;;;;;4.07;0.90;;;;;;;11.91;97.06;102676.94;10353822;28;20053;-72
2023/05/02 15:54:39;;;;;;;8.63;0.82;;;;;;;12.62;95.67;102674.19;10400951;28;20037;-74
2023/05/02 15:59:40;;;;;;;2.85;0.70;;;;;;;12.90;91.29;102665.47;10400900;28;20042;-74
2023/05/02 16:04:41;;;;;;;1.65;0.60;;;;;;;13.96;87.16;102682.03;10369937;28;20042;-73
2023/05/02 16:09:42;;;;;;;7.90;0.95;;;;;;;12.48;86.75;102670.69;10377025;28;20042;-74
2023/05/02 16:14:43;;;;;;;1.80;0.50;;;;;;;11.95;90.55;102688.41;10359938;28;20359;-74
2023/05/02 16:19:44;;;;;;;5.30;0.80;;;;;;;11.39;92.17;102688.97;10359004;28;20041;-73
2023/05/02 16:24:44;;;;;;;8.75;1.90;;;;;;;11.31;91.12;102688.16;10359384;28;20041;-73
2023/05/02 16:29:45;;;;;;;5.88;1.30;;;;;;;11.63;91.61;102674.47;10327037;28;20038;-73
2023/05/02 16:34:45;;;;;;;5.40;0.80;;;;;;;11.24;92.60;102664.41;10332267;28;20030;-74
2023/05/02 16:39:46;;;;;;;3.28;0.93;;;;;;;11.13;92.11;102684.38;10405011;28;20041;-73
2023/05/02 16:44:46;;;;;;;3.70;0.65;;;;;;;11.58;91.18;102681.72;10412735;28;20034;-74
2023/05/02 16:49:52;;;;;;;6.32;0.82;;;;;;;12.54;87.58;102671.72;10397120;28;20048;-74
2023/05/02 16:54:52;;;;;;;2.50;0.57;;;;;;;12.10;86.91;102690.88;10384085;28;20038;-74
2023/05/02 16:59:53;;;;;;;6.32;1.17;;;;;;;11.05;90.50;102693.69;10381767;28;20045;-74
2023/05/02 17:04:53;;;;;;;6.82;0.98;;;;;;;11.09;93.86;102723.38;10359856;28;20045;-74
2023/05/02 17:09:54;;;;;;;3.92;0.60;;;;;;;10.70;94.21;102725.03;10396391;28;20052;-74
2023/05/02 17:14:54;;;;;;;3.22;0.60;;;;;;;10.57;93.08;102727.78;10385568;28;20058;-75
2023/05/02 17:19:55;;;;;;;5.90;0.80;;;;;;;10.36;92.31;102738.97;10381503;28;20029;-73
2023/05/02 17:24:55;;;;;;;4.90;0.90;;;;;;;10.14;90.92;102722.56;10397896;28;20056;-72
2023/05/02 17:29:56;;;;;;;2.90;0.68;;;;;;;10.01;92.46;102725.25;10380671;28;20049;-74
2023/05/02 17:34:56;;;;;;;5.82;1.00;;;;;;;9.93;92.26;102722.69;10363145;28;20049;-74
2023/05/02 17:39:59;;;;;;;4.38;0.60;;;;;;;9.90;92.78;102733.03;10338649;28;20026;-73
2023/05/02 17:45:00;;;;;;;5.10;0.80;;;;;;;9.88;93.98;102743.41;10355894;28;20485;-73
2023/05/02 17:50:03;;;;;;;5.47;0.80;;;;;;;9.67;96.38;102748.97;10354271;28;20045;-73
2023/05/02 17:55:04;;;;;;;3.58;0.60;;;;;;;9.22;98.72;102753.94;10339579;28;20037;-73
2023/05/02 18:00:06;;;;;;;2.78;0.70;;;;;;;8.76;97.98;102715.94;10356863;28;20471;-74
2023/05/02 18:05:08;;;;;;;6.95;1.10;;;;;;;8.78;97.87;102769.63;10394774;28;20045;-74
2023/05/02 18:10:08;;;;;;;5.53;0.73;;;;;;;8.59;100.00;102784.00;10394053;28;20072;-73
2023/05/02 18:15:09;;;;;;;6.65;1.20;;;;;;;8.38;100.00;102791.13;10392639;28;20048;-73
2023/05/02 18:20:10;;;;;;;7.25;0.90;;;;;;;8.21;100.00;102786.91;10411140;28;20030;-70
2023/05/02 18:25:10;;;;;;;4.78;0.93;;;;;;;7.96;100.00;102786.34;10392554;28;20044;-74
2023/05/02 18:30:11;;;;;;;4.35;0.80;;;;;;;7.82;100.00;102807.28;10376065;28;20042;-74
2023/05/02 18:35:11;;;;;;;4.82;0.95;;;;;;;7.30;100.00;102759.69;10376003;28;20419;-73
2023/05/02 18:40:12;;;;;;;7.57;1.00;;;;;;;7.64;100.00;102811.22;10374687;28;20481;-74
2023/05/02 18:45:12;;;;;;;2.63;1.10;;;;;;;7.42;100.00;102807.53;10359173;28;20029;-75
2023/05/02 18:50:13;;;;;;;4.32;0.93;;;;;;;7.37;100.00;102820.06;10392077;28;20033;-75
2023/05/02 18:55:13;;;;;;;5.55;1.02;;;;;;;7.32;100.00;102815.16;10346916;28;20064;-75
2023/05/02 19:00:14;;;;;;;6.05;1.58;;;;;;;7.19;100.00;102801.19;10341597;28;20038;-74
2023/05/02 19:05:14;;;;;;;3.05;0.73;;;;;;;7.20;100.00;102803.78;10365724;28;20068;-75
2023/05/02 19:10:15;;;;;;;7.88;1.17;;;;;;;6.83;100.00;102728.75;10318909;28;1129872;-74
2023/05/02 19:15:16;;;;;;;2.50;0.77;;;;;;;7.29;100.00;102796.31;10409471;28;20396;-74
2023/05/02 19:20:17;;;;;;;5.35;1.08;;;;;;;7.31;100.00;102799.72;10410359;28;20033;-74
2023/05/02 19:25:17;;;;;;;3.28;0.77;;;;;;;7.34;100.00;102813.06;10410122;28;20408;-74
2023/05/02 19:30:20;;;;;;;7.90;1.70;;;;;;;7.29;100.00;102812.75;10375052;28;20029;-74
2023/05/02 19:35:20;;;;;;;6.57;1.65;;;;;;;7.13;100.00;102807.41;10388463;28;20042;-74
2023/05/02 19:40:21;;;;;;;4.53;1.00;;;;;;;7.00;100.00;102816.25;10378802;28;20030;-74
2023/05/02 19:45:22;;;;;;;4.72;1.20;;;;;;;6.66;100.00;102812.06;10375245;28;20037;-74
2023/05/02 19:50:24;;;;;;;4.70;1.20;;;;;;;6.58;100.00;102843.06;10370819;28;20045;-74
2023/05/02 19:55:25;;;;;;;6.55;1.52;;;;;;;6.34;100.00;102844.03;10375763;28;20042;-74
2023/05/02 20:00:25;;;;;;;6.60;1.27;;;;;;;6.18;100.00;102841.34;10390486;28;20042;-75
2023/05/02 20:05:26;;;;;;;3.03;1.23;;;;;;;6.05;100.00;102842.75;10393547;28;20060;-75
2023/05/02 20:10:26;;;;;;;2.95;1.45;;;;;;;5.99;100.00;102837.16;10391215;28;20053;-74
2023/05/02 20:15:27;;;;;;;3.58;1.30;;;;;;;6.15;100.00;102871.81;10366816;28;20041;-73
2023/05/02 20:20:28;;;;;;;5.10;1.38;;;;;;;6.07;100.00;102831.66;10399864;28;20060;-74
2023/05/02 20:25:28;;;;;;;7.55;1.60;;;;;;;6.22;100.00;102849.06;10389247;28;20050;-73
2023/05/02 20:30:29;;;;;;;3.80;1.30;;;;;;;6.14;100.00;102819.00;10388103;28;20045;-73
2023/05/02 20:35:30;;;;;;;5.32;1.40;;;;;;;6.41;100.00;102846.91;10401275;28;20112;-73
2023/05/02 20:40:31;;;;;;;7.90;2.08;;;;;;;6.49;100.00;102857.81;10367796;28;20101;-74
2023/05/02 20:45:32;;;;;;;3.75;1.20;;;;;;;6.53;100.00;102867.38;10376803;28;20038;-73
2023/05/02 20:50:32;;;;;;;8.80;2.45;;;;;;;6.47;100.00;102854.41;10398191;28;20054;-70
2023/05/02 20:55:34;;;;;;;3.50;1.30;;;;;;;6.51;100.00;102874.03;10365552;28;20472;-74
2023/05/02 21:00:35;;;;;;;3.67;1.30;;;;;;;6.40;100.00;102872.56;10363588;28;20040;-73
2023/05/02 21:05:35;;;;;;;5.03;1.90;;;;;;;6.41;100.00;102885.22;10395822;28;20056;-74
2023/05/02 21:10:36;;;;;;;4.25;1.90;;;;;;;6.33;100.00;102877.03;10378721;28;20093;-74
2023/05/02 21:15:38;;;;;;;3.20;1.50;;;;;;;6.34;100.00;102890.53;10357079;28;20413;-74
2023/05/02 21:20:40;;;;;;;10.25;2.13;;;;;;;6.19;100.00;102867.69;10380224;28;20034;-73
2023/05/02 21:25:40;;;;;;;4.70;1.80;;;;;;;6.32;100.00;102889.00;10395209;28;20129;-74
2023/05/02 21:30:41;;;;;;;4.28;1.48;;;;;;;6.30;100.00;102902.00;10363317;28;20033;-74
2023/05/02 21:35:42;;;;;;;7.80;2.50;;;;;;;6.28;100.00;102901.31;10379874;28;20025;-74
2023/05/02 21:40:42;;;;;;;3.03;1.50;;;;;;;6.19;100.00;102895.03;10363736;28;20033;-73
2023/05/02 21:45:46;;;;;;;2.88;1.20;;;;;;;5.98;100.00;102881.94;10396674;28;20041;-74
2023/05/02 21:50:47;;;;;;;4.18;1.00;;;;;;;5.78;100.00;102895.94;10413520;28;20113;-74
2023/05/02 21:55:47;;;;;;;3.20;1.35;;;;;;;5.57;100.00;102892.88;10378733;28;20079;-74
2023/05/02 22:00:48;;;;;;;3.13;1.40;;;;;;;5.26;100.00;102880.75;10394834;28;20037;-73
2023/05/02 22:05:48;;;;;;;7.07;1.48;;;;;;;5.16;100.00;102884.69;10411224;28;20528;-74
2023/05/02 22:10:49;;;;;;;3.70;1.13;;;;;;;5.02;100.00;102894.38;10355854;28;20049;-73
2023/05/02 22:15:49;;;;;;;4.00;1.20;;;;;;;4.78;100.00;102871.47;10378158;28;20037;-74
2023/05/02 22:20:50;;;;;;;3.15;1.52;;;;;;;4.69;100.00;102893.44;10360724;28;20037;-74
2023/05/02 22:25:51;;;;;;;4.15;1.58;;;;;;;4.61;100.00;102900.59;10392585;28;20048;-74
2023/05/02 22:30:51;;;;;;;4.50;1.27;;;;;;;4.53;100.00;102889.66;10393540;28;20069;-74
2023/05/02 22:35:52;;;;;;;3.90;1.63;;;;;;;4.63;100.00;102893.09;10392972;28;20060;-74
2023/05/02 22:40:52;;;;;;;3.38;1.40;;;;;;;4.69;100.00;102888.00;10364293;28;20050;-74
2023/05/02 22:45:53;;;;;;;5.35;1.58;;;;;;;4.65;100.00;102869.25;10320309;28;20425;-74
2023/05/02 22:50:53;;;;;;;3.95;1.30;;;;;;;4.75;100.00;102882.72;10337175;28;20094;-75
2023/05/02 22:55:54;;;;;;;3.00;1.77;;;;;;;4.89;100.00;102894.88;10336925;28;20541;-74
2023/05/02 23:00:55;;;;;;;4.05;1.77;;;;;;;4.99;100.00;102883.81;10371643;28;20045;-71